Time;durP1;ratioP1;P1;durP2;ratioP2;P2;SDS_P1;SDS_P2;PMS_P1;PMS_P2;Temp;Humidity;BMP_temperature;BMP_pressure;BME280_temperature;BME280_humidity;BME280_pressure;Samples;Min_cycle;Max_cycle;Signal;HPM_P1;HPM_P2
2023/04/16 00:00:03;;;;;;;11.90;4.13;;;;;;;7.36;100.00;102057.03;4896752;29;20120;-71
2023/04/16 00:02:29;;;;;;;6.82;4.25;;;;;;;7.41;100.00;102065.41;4878830;29;20481;-72
2023/04/16 00:04:54;;;;;;;7.28;3.88;;;;;;;7.35;100.00;102059.81;4878803;29;20036;-71
2023/04/16 00:07:20;;;;;;;11.68;5.63;;;;;;;7.38;100.00;102063.00;4878824;29;20444;-71
2023/04/16 00:09:46;;;;;;;11.68;3.83;;;;;;;7.40;100.00;102068.19;4878824;29;20465;-71
2023/04/16 00:12:12;;;;;;;11.40;4.18;;;;;;;7.38;100.00;102065.66;4896094;29;20135;-71
2023/04/16 00:14:37;;;;;;;7.63;3.60;;;;;;;7.39;100.00;102064.69;4896320;29;20131;-71
2023/04/16 00:17:02;;;;;;;12.82;3.33;;;;;;;7.39;100.00;102063.88;4882333;29;20021;-71
2023/04/16 00:19:28;;;;;;;7.75;3.67;;;;;;;7.39;100.00;102062.03;4861683;29;20060;-71
2023/04/16 00:21:53;;;;;;;6.43;3.53;;;;;;;7.41;100.00;102061.88;4861769;29;20041;-71
2023/04/16 00:24:18;;;;;;;12.77;3.30;;;;;;;7.44;100.00;102077.50;4887830;29;20032;-71
2023/04/16 00:26:45;;;;;;;9.45;3.45;;;;;;;7.39;100.00;102055.91;4879293;29;20028;-71
2023/04/16 00:29:11;;;;;;;10.35;4.07;;;;;;;7.38;100.00;102060.34;4896267;29;20124;-71
2023/04/16 00:31:36;;;;;;;16.35;5.47;;;;;;;7.35;100.00;102054.50;4896153;29;20116;-71
2023/04/16 00:34:02;;;;;;;11.48;3.38;;;;;;;7.36;100.00;102061.47;4879604;29;20028;-71
2023/04/16 00:36:27;;;;;;;7.25;3.28;;;;;;;7.37;100.00;102069.31;4896133;29;20032;-71
2023/04/16 00:38:54;;;;;;;6.80;3.15;;;;;;;7.36;100.00;102062.34;4879089;29;20123;-71
2023/04/16 00:41:20;;;;;;;12.07;3.70;;;;;;;7.39;100.00;102064.69;4895975;29;20481;-71
2023/04/16 00:43:45;;;;;;;8.60;3.30;;;;;;;7.40;100.00;102063.69;4895963;29;20040;-71
2023/04/16 00:46:11;;;;;;;10.77;3.17;;;;;;;7.39;100.00;102059.38;4895253;29;20036;-71
2023/04/16 00:48:38;;;;;;;11.35;3.75;;;;;;;7.42;100.00;102061.75;4895859;29;20068;-71
2023/04/16 00:51:05;;;;;;;11.15;3.40;;;;;;;7.45;100.00;102066.75;4895806;29;20044;-71
2023/04/16 00:53:30;;;;;;;9.57;2.78;;;;;;;7.45;100.00;102065.94;4895860;29;20037;-71
2023/04/16 00:55:56;;;;;;;10.52;4.63;;;;;;;7.46;100.00;102070.25;4895711;29;20104;-71
2023/04/16 00:58:22;;;;;;;8.48;3.33;;;;;;;7.36;100.00;102046.41;4895586;29;20033;-71
2023/04/16 01:00:47;;;;;;;9.88;3.55;;;;;;;7.45;100.00;102064.09;4895623;29;20032;-71
2023/04/16 01:03:13;;;;;;;16.23;4.78;;;;;;;7.45;100.00;102056.13;4895631;29;20044;-71
2023/04/16 01:05:39;;;;;;;7.38;3.20;;;;;;;7.42;100.00;102056.44;4895694;29;20131;-71
2023/04/16 01:08:05;;;;;;;9.55;5.15;;;;;;;7.47;100.00;102061.31;4895720;29;20064;-71
2023/04/16 01:10:30;;;;;;;11.98;3.85;;;;;;;7.46;100.00;102062.28;4895654;29;20028;-71
2023/04/16 01:12:55;;;;;;;10.23;4.47;;;;;;;7.46;100.00;102060.44;4895255;29;20426;-71
2023/04/16 01:15:21;;;;;;;13.63;4.03;;;;;;;7.49;100.00;102055.84;4895384;29;20488;-71
2023/04/16 01:17:47;;;;;;;8.80;4.90;;;;;;;7.45;100.00;102050.81;4895313;29;20087;-71
2023/04/16 01:20:12;;;;;;;10.57;4.45;;;;;;;7.49;100.00;102050.53;4895631;29;20040;-71
2023/04/16 01:22:38;;;;;;;12.45;5.22;;;;;;;7.48;100.00;102057.66;4895389;29;20044;-71
2023/04/16 01:25:03;;;;;;;12.93;4.53;;;;;;;7.44;100.00;102049.16;4895246;29;20033;-71
2023/04/16 01:27:30;;;;;;;12.77;6.13;;;;;;;7.45;100.00;102050.81;4878474;29;20437;-71
2023/04/16 01:29:55;;;;;;;11.32;4.28;;;;;;;7.45;100.00;102057.97;4895139;29;20440;-71
2023/04/16 01:32:21;;;;;;;8.75;4.40;;;;;;;7.46;100.00;102049.84;4878306;29;20029;-71
2023/04/16 01:34:46;;;;;;;16.38;5.10;;;;;;;7.47;100.00;102056.00;4895044;29;20043;-71
2023/04/16 01:37:12;;;;;;;14.38;5.82;;;;;;;7.50;100.00;102060.19;4894990;29;20060;-71
2023/04/16 01:39:37;;;;;;;13.50;5.25;;;;;;;7.50;100.00;102057.53;4895101;29;20032;-71
2023/04/16 01:42:03;;;;;;;9.98;3.85;;;;;;;7.47;100.00;102059.50;4878064;29;20533;-71
2023/04/16 01:44:29;;;;;;;11.40;5.43;;;;;;;7.51;100.00;102065.34;4894641;29;20040;-71
2023/04/16 01:46:55;;;;;;;14.73;5.57;;;;;;;7.47;100.00;102056.84;4894949;29;20044;-71
2023/04/16 01:49:21;;;;;;;9.80;4.95;;;;;;;7.52;100.00;102068.81;4894837;29;20040;-71
2023/04/16 01:51:46;;;;;;;9.27;4.82;;;;;;;7.52;100.00;102061.72;4877861;29;20100;-71
2023/04/16 01:54:12;;;;;;;7.82;4.47;;;;;;;7.46;100.00;102055.16;4894896;29;20036;-71
2023/04/16 01:56:37;;;;;;;12.55;5.13;;;;;;;7.51;100.00;102064.50;4894803;29;20039;-71
2023/04/16 01:59:02;;;;;;;16.25;6.00;;;;;;;7.51;100.00;102065.34;4894384;29;20107;-71
2023/04/16 02:01:28;;;;;;;12.50;4.18;;;;;;;7.52;100.00;102060.84;4894691;29;20039;-71
2023/04/16 02:03:53;;;;;;;11.35;5.05;;;;;;;7.52;100.00;102061.72;4894639;29;20092;-71
2023/04/16 02:06:19;;;;;;;8.43;4.18;;;;;;;7.52;100.00;102063.50;4894557;29;20469;-71
2023/04/16 02:08:44;;;;;;;11.05;4.45;;;;;;;7.54;100.00;102072.16;4894574;29;20040;-71
2023/04/16 02:11:10;;;;;;;10.13;4.28;;;;;;;7.54;100.00;102066.84;4894451;29;20453;-71
2023/04/16 02:13:35;;;;;;;13.30;4.88;;;;;;;7.54;100.00;102070.34;4894484;29;20037;-71
2023/04/16 02:16:01;;;;;;;13.07;5.40;;;;;;;7.56;100.00;102067.56;4894329;29;20041;-71
2023/04/16 02:18:27;;;;;;;16.17;5.07;;;;;;;7.58;100.00;102073.56;4894242;29;20148;-71
2023/04/16 02:20:52;;;;;;;7.68;4.20;;;;;;;7.59;100.00;102072.56;4894335;29;20071;-71
2023/04/16 02:23:17;;;;;;;12.27;5.32;;;;;;;7.58;100.00;102062.94;4877703;29;20123;-71
2023/04/16 02:25:44;;;;;;;10.48;4.00;;;;;;;7.58;100.00;102062.94;4894367;29;20040;-71
2023/04/16 02:28:12;;;;;;;9.45;3.83;;;;;;;7.55;100.00;102060.59;4894215;29;20488;-71
2023/04/16 02:30:39;;;;;;;10.55;6.18;;;;;;;7.57;100.00;102064.75;4894175;29;20035;-71
2023/04/16 02:33:06;;;;;;;9.02;4.18;;;;;;;7.60;100.00;102068.94;4894093;29;20041;-71
2023/04/16 02:35:35;;;;;;;11.75;5.65;;;;;;;7.56;100.00;102063.06;4877298;29;20084;-71
2023/04/16 02:38:02;;;;;;;14.98;5.25;;;;;;;7.56;100.00;102063.06;4894228;29;20120;-71
2023/04/16 02:40:28;;;;;;;13.45;4.82;;;;;;;7.55;100.00;102063.25;4894132;29;20032;-71
2023/04/16 02:42:54;;;;;;;12.05;4.97;;;;;;;7.55;100.00;102060.59;4894178;29;21036;-71
2023/04/16 02:45:20;;;;;;;8.70;4.28;;;;;;;7.59;100.00;102056.63;4893932;29;20075;-71
2023/04/16 02:47:46;;;;;;;10.45;3.92;;;;;;;7.60;100.00;102068.94;4894074;29;20029;-71
2023/04/16 02:50:11;;;;;;;11.00;4.75;;;;;;;7.61;100.00;102067.94;4894127;29;20032;-71
2023/04/16 02:52:37;;;;;;;8.90;4.50;;;;;;;7.58;100.00;102057.63;4893980;29;20039;-71
2023/04/16 02:55:02;;;;;;;10.55;4.50;;;;;;;7.59;100.00;102061.94;4894033;29;20047;-71
2023/04/16 02:57:28;;;;;;;13.77;5.32;;;;;;;7.61;100.00;102071.44;4877222;29;20047;-71
2023/04/16 02:59:53;;;;;;;14.00;5.93;;;;;;;7.60;100.00;102063.63;4893988;29;20116;-72
2023/04/16 03:02:19;;;;;;;15.43;6.07;;;;;;;7.58;100.00;102069.09;4861851;29;20039;-71
2023/04/16 03:04:44;;;;;;;12.75;4.68;;;;;;;7.59;100.00;102067.25;4893983;29;20051;-71
2023/04/16 03:07:11;;;;;;;15.48;5.22;;;;;;;7.61;100.00;102075.91;4893988;29;20041;-71
2023/04/16 03:09:37;;;;;;;13.45;5.60;;;;;;;7.57;100.00;102071.88;4894484;29;20036;-71
2023/04/16 03:12:03;;;;;;;12.98;5.45;;;;;;;7.60;100.00;102079.56;4897628;29;20051;-71
2023/04/16 03:14:28;;;;;;;11.43;5.63;;;;;;;7.54;100.00;102072.16;4897430;29;20080;-71
2023/04/16 03:16:54;;;;;;;15.43;5.88;;;;;;;7.59;100.00;102088.50;4897524;29;20036;-71
2023/04/16 03:19:19;;;;;;;15.43;6.72;;;;;;;7.55;100.00;102081.81;4897385;29;20091;-71
2023/04/16 03:21:44;;;;;;;15.85;6.03;;;;;;;7.57;100.00;102088.66;4880722;29;20057;-71
2023/04/16 03:24:10;;;;;;;15.70;6.95;;;;;;;7.58;100.00;102090.31;4897287;29;20020;-71
2023/04/16 03:26:35;;;;;;;15.52;6.90;;;;;;;7.55;100.00;102087.13;4897432;29;20056;-71
2023/04/16 03:29:01;;;;;;;16.52;7.18;;;;;;;7.58;100.00;102092.16;4897406;29;20039;-71
2023/04/16 03:31:27;;;;;;;20.85;8.15;;;;;;;7.52;100.00;102087.41;4897262;29;20037;-71
2023/04/16 03:33:52;;;;;;;15.25;5.97;;;;;;;7.58;100.00;102090.31;4895415;29;20047;-71
2023/04/16 03:36:18;;;;;;;14.77;6.35;;;;;;;7.56;100.00;102084.31;4879255;29;20497;-71
2023/04/16 03:38:43;;;;;;;18.40;6.55;;;;;;;7.59;100.00;102083.19;4879220;29;20109;-71
2023/04/16 03:41:09;;;;;;;20.52;6.47;;;;;;;7.56;100.00;102083.47;4878974;29;20032;-72
2023/04/16 03:43:34;;;;;;;17.88;7.32;;;;;;;7.56;100.00;102078.16;4879295;29;20029;-71
2023/04/16 03:46:00;;;;;;;13.30;6.43;;;;;;;7.57;100.00;102087.78;4877942;29;20497;-71
2023/04/16 03:48:25;;;;;;;16.60;5.97;;;;;;;7.56;100.00;102079.00;4879090;29;20037;-71
2023/04/16 03:50:50;;;;;;;16.48;6.15;;;;;;;7.57;100.00;102083.34;4879110;29;20109;-71
2023/04/16 03:53:16;;;;;;;16.70;6.50;;;;;;;7.57;100.00;102077.19;4878967;29;20041;-71
2023/04/16 03:55:41;;;;;;;17.38;6.28;;;;;;;7.58;100.00;102084.19;4878995;29;20067;-71
2023/04/16 03:58:07;;;;;;;17.58;7.05;;;;;;;7.59;100.00;102091.16;4878888;29;20041;-71
2023/04/16 04:00:32;;;;;;;14.48;6.70;;;;;;;7.58;100.00;102095.63;4878951;29;20061;-71
2023/04/16 04:02:57;;;;;;;15.02;6.13;;;;;;;7.59;100.00;102093.81;4878840;29;20025;-71
2023/04/16 04:05:23;;;;;;;19.48;8.48;;;;;;;7.55;100.00;102095.09;4895501;29;20484;-71
2023/04/16 04:07:48;;;;;;;22.35;9.43;;;;;;;7.58;100.00;102098.28;4896672;29;20036;-71
2023/04/16 04:10:15;;;;;;;25.45;7.22;;;;;;;7.59;100.00;102097.28;4879839;29;20029;-71
2023/04/16 04:12:40;;;;;;;17.40;8.80;;;;;;;7.55;100.00;102093.28;4896541;29;20076;-71
2023/04/16 04:15:06;;;;;;;19.08;7.93;;;;;;;7.58;100.00;102103.59;4896560;29;20029;-71
2023/04/16 04:17:31;;;;;;;20.33;7.38;;;;;;;7.57;100.00;102106.38;4879513;29;20056;-71
2023/04/16 04:19:56;;;;;;;19.75;7.53;;;;;;;7.57;100.00;102101.06;4896404;29;20421;-71
2023/04/16 04:22:22;;;;;;;18.30;8.18;;;;;;;7.56;100.00;102104.72;4896097;29;20127;-71
2023/04/16 04:24:47;;;;;;;18.08;8.05;;;;;;;7.56;100.00;102110.84;4879735;29;20032;-71
2023/04/16 04:27:12;;;;;;;19.00;8.07;;;;;;;7.56;100.00;102096.75;4896411;29;20682;-71
2023/04/16 04:29:38;;;;;;;18.77;7.50;;;;;;;7.55;100.00;102103.06;4896339;29;20064;-71
2023/04/16 04:32:03;;;;;;;21.65;9.18;;;;;;;7.54;100.00;102101.38;4896170;29;20044;-71
2023/04/16 04:34:29;;;;;;;19.20;8.68;;;;;;;7.56;100.00;102104.72;4895991;29;20036;-72
2023/04/16 04:36:54;;;;;;;21.42;8.60;;;;;;;7.51;100.00;102102.50;4896140;29;20059;-71
2023/04/16 04:39:20;;;;;;;17.52;8.05;;;;;;;7.57;100.00;102109.03;4896020;29;20036;-71
2023/04/16 04:41:46;;;;;;;22.00;8.45;;;;;;;7.55;100.00;102114.50;4896191;29;20025;-71
2023/04/16 04:44:12;;;;;;;23.42;9.55;;;;;;;7.57;100.00;102111.69;4895990;29;20079;-71
2023/04/16 04:46:37;;;;;;;25.98;10.50;;;;;;;7.58;100.00;102113.38;4895803;29;20455;-71
2023/04/16 04:49:02;;;;;;;28.10;9.85;;;;;;;7.58;100.00;102124.84;4895986;29;20068;-71
2023/04/16 04:51:28;;;;;;;25.20;8.95;;;;;;;7.57;100.00;102120.53;4895917;29;20032;-71
2023/04/16 04:53:53;;;;;;;22.42;7.85;;;;;;;7.53;100.00;102111.16;4895877;29;20040;-71
2023/04/16 04:56:19;;;;;;;16.98;7.70;;;;;;;7.55;100.00;102119.00;4895796;29;20440;-71
2023/04/16 04:58:45;;;;;;;19.08;7.47;;;;;;;7.53;100.00;102129.75;4895848;29;20120;-71
2023/04/16 05:01:10;;;;;;;22.90;8.88;;;;;;;7.49;100.00;102119.53;4895576;29;20041;-71
2023/04/16 05:03:35;;;;;;;18.20;7.95;;;;;;;7.53;100.00;102126.25;4895517;29;20024;-71
2023/04/16 05:06:01;;;;;;;22.00;7.65;;;;;;;7.47;100.00;102123.19;4895491;29;20032;-71
2023/04/16 05:08:26;;;;;;;18.95;7.22;;;;;;;7.50;100.00;102127.38;4876114;29;20051;-71
2023/04/16 05:10:52;;;;;;;19.50;7.63;;;;;;;7.51;100.00;102126.38;4860768;29;20041;-71
2023/04/16 05:13:17;;;;;;;18.27;8.52;;;;;;;7.54;100.00;102133.22;4877470;29;20048;-71
2023/04/16 05:15:44;;;;;;;16.63;7.68;;;;;;;7.54;100.00;102127.91;4877213;29;20041;-71
2023/04/16 05:18:09;;;;;;;16.15;6.75;;;;;;;7.49;100.00;102124.84;4877336;29;20095;-71
2023/04/16 05:20:36;;;;;;;23.30;8.48;;;;;;;7.45;100.00;102116.34;4895266;29;20064;-71
2023/04/16 05:23:02;;;;;;;18.98;7.10;;;;;;;7.52;100.00;102130.72;4895098;29;20492;-71
2023/04/16 05:25:27;;;;;;;15.98;7.55;;;;;;;7.55;100.00;102132.25;4878261;29;20043;-71
2023/04/16 05:27:52;;;;;;;20.17;7.32;;;;;;;7.56;100.00;102132.09;4894945;29;20032;-71
2023/04/16 05:30:18;;;;;;;21.88;8.25;;;;;;;7.57;100.00;102127.63;4878303;29;20072;-71
2023/04/16 05:32:43;;;;;;;18.08;6.95;;;;;;;7.54;100.00;102139.38;4894645;29;20024;-71
2023/04/16 05:35:09;;;;;;;20.63;9.02;;;;;;;7.57;100.00;102138.25;4894961;29;20579;-71
2023/04/16 05:37:34;;;;;;;17.90;7.35;;;;;;;7.59;100.00;102147.72;4894856;29;20036;-71
2023/04/16 05:39:59;;;;;;;21.90;9.52;;;;;;;7.57;100.00;102140.91;4895150;29;20037;-71
2023/04/16 05:42:25;;;;;;;26.65;9.02;;;;;;;7.52;100.00;102129.88;4877975;29;20147;-71
2023/04/16 05:44:51;;;;;;;20.45;9.23;;;;;;;7.61;100.00;102148.44;4894979;29;20107;-71
2023/04/16 05:47:16;;;;;;;20.88;7.07;;;;;;;7.60;100.00;102152.09;4894639;29;20044;-71
2023/04/16 05:49:42;;;;;;;20.13;8.40;;;;;;;7.54;100.00;102144.69;4894686;29;20025;-71
2023/04/16 05:52:07;;;;;;;20.15;9.80;;;;;;;7.58;100.00;102142.59;4894440;29;20086;-71
2023/04/16 05:54:32;;;;;;;24.08;8.85;;;;;;;7.61;100.00;102150.25;4877843;29;20052;-71
2023/04/16 05:56:59;;;;;;;23.33;8.77;;;;;;;7.63;100.00;102162.41;4877968;29;20044;-71
2023/04/16 05:59:25;;;;;;;24.25;9.25;;;;;;;7.66;100.00;102159.44;4876526;29;20029;-71
2023/04/16 06:01:50;;;;;;;22.45;9.15;;;;;;;7.63;100.00;102157.09;4876687;29;20438;-71
2023/04/16 06:04:16;;;;;;;24.17;11.00;;;;;;;7.68;100.00;102164.63;4876559;29;20037;-71
2023/04/16 06:06:41;;;;;;;22.70;8.55;;;;;;;7.67;100.00;102162.94;4894285;29;20024;-71
2023/04/16 06:09:07;;;;;;;21.35;9.82;;;;;;;7.68;100.00;102165.47;4877537;29;20036;-71
2023/04/16 06:11:32;;;;;;;23.85;9.63;;;;;;;7.71;100.00;102167.00;4894247;29;20055;-71
2023/04/16 06:13:57;;;;;;;23.00;10.20;;;;;;;7.71;100.00;102160.84;4894241;29;20033;-72
2023/04/16 06:16:23;;;;;;;20.45;9.23;;;;;;;7.72;100.00;102159.84;4877333;29;20036;-71
2023/04/16 06:18:48;;;;;;;24.80;9.57;;;;;;;7.76;100.00;102164.75;4893919;29;20060;-71
2023/04/16 06:21:14;;;;;;;20.60;9.30;;;;;;;7.79;100.00;102168.94;4894047;29;20064;-72
2023/04/16 06:23:39;;;;;;;24.15;10.65;;;;;;;7.74;100.00;102161.38;4894010;29;20033;-71
2023/04/16 06:26:05;;;;;;;23.83;10.63;;;;;;;7.81;100.00;102172.28;4894256;29;20032;-71
2023/04/16 06:28:30;;;;;;;23.95;9.63;;;;;;;7.80;100.00;102184.69;4894319;29;20144;-71
2023/04/16 06:30:56;;;;;;;24.23;9.85;;;;;;;7.80;100.00;102179.38;4877112;29;20040;-71
2023/04/16 06:33:21;;;;;;;26.30;9.98;;;;;;;7.81;100.00;102183.72;4893908;29;20088;-71
2023/04/16 06:35:47;;;;;;;28.42;9.85;;;;;;;7.82;100.00;102188.06;4893992;29;20436;-71
2023/04/16 06:38:13;;;;;;;26.10;9.95;;;;;;;7.79;100.00;102184.84;4859894;29;20033;-71
2023/04/16 06:40:38;;;;;;;25.70;10.65;;;;;;;7.83;100.00;102194.19;4876093;29;20053;-71
2023/04/16 06:43:04;;;;;;;23.65;9.20;;;;;;;7.83;100.00;102192.41;4876104;29;20029;-71
2023/04/16 06:45:30;;;;;;;28.02;10.55;;;;;;;7.85;100.00;102193.06;4876881;29;20446;-71
2023/04/16 06:47:57;;;;;;;24.60;10.98;;;;;;;7.82;100.00;102193.38;4879948;29;20148;-71
2023/04/16 06:50:25;;;;;;;27.50;9.35;;;;;;;7.87;100.00;102203.56;4863336;29;20358;-71
2023/04/16 06:52:51;;;;;;;26.30;11.02;;;;;;;7.88;100.00;102199.91;4880122;29;20512;-71
2023/04/16 06:55:16;;;;;;;24.48;9.27;;;;;;;7.88;100.00;102205.22;4879895;29;20072;-71
2023/04/16 06:57:41;;;;;;;23.73;10.85;;;;;;;7.85;100.00;102193.06;4880003;29;20037;-71
2023/04/16 07:00:07;;;;;;;24.08;9.90;;;;;;;7.94;100.00;102217.06;4879683;29;20415;-71
2023/04/16 07:02:33;;;;;;;24.52;8.98;;;;;;;7.95;100.00;102208.97;4879679;29;20083;-71
2023/04/16 07:04:58;;;;;;;29.95;10.65;;;;;;;7.96;100.00;102207.16;4879659;29;20092;-71
2023/04/16 07:07:24;;;;;;;21.85;10.35;;;;;;;7.94;100.00;102209.09;4879468;29;20029;-71
2023/04/16 07:09:49;;;;;;;26.88;10.35;;;;;;;8.00;100.00;102213.84;4879683;29;20037;-71
2023/04/16 07:12:14;;;;;;;33.88;13.73;;;;;;;8.02;100.00;102211.91;4879268;29;20553;-71
2023/04/16 07:14:40;;;;;;;27.60;9.85;;;;;;;8.02;100.00;102220.69;4881540;29;20040;-71
2023/04/16 07:17:05;;;;;;;26.95;10.32;;;;;;;8.03;100.00;102226.84;4897146;29;20040;-72
2023/04/16 07:19:31;;;;;;;21.90;9.38;;;;;;;8.01;100.00;102221.66;4896907;29;20057;-72
2023/04/16 07:22:01;;;;;;;22.17;10.00;;;;;;;8.08;100.00;102224.59;4879475;29;20040;-72
2023/04/16 07:24:26;;;;;;;24.77;11.63;;;;;;;8.09;100.00;102231.56;4890869;29;20041;-71
2023/04/16 07:26:51;;;;;;;24.13;10.45;;;;;;;8.01;100.00;102220.84;4874191;29;20065;-72
2023/04/16 07:29:17;;;;;;;26.17;9.18;;;;;;;8.06;100.00;102221.22;4879087;29;20025;-72
2023/04/16 07:31:42;;;;;;;25.23;10.85;;;;;;;8.14;100.00;102242.59;4879012;29;20032;-72
2023/04/16 07:34:07;;;;;;;25.55;10.98;;;;;;;8.10;100.00;102231.44;4877599;29;20104;-72
2023/04/16 07:36:33;;;;;;;19.10;9.23;;;;;;;8.17;100.00;102233.50;4896166;29;20087;-72
2023/04/16 07:38:58;;;;;;;21.55;9.00;;;;;;;8.19;100.00;102242.16;4879321;29;20036;-71
2023/04/16 07:41:24;;;;;;;23.60;11.07;;;;;;;8.19;100.00;102236.84;4895902;29;20048;-71
2023/04/16 07:43:49;;;;;;;22.55;10.32;;;;;;;8.26;100.00;102253.88;4879350;29;20092;-72
2023/04/16 07:46:15;;;;;;;25.75;10.85;;;;;;;8.27;100.00;102258.22;4895703;29;20036;-72
2023/04/16 07:48:41;;;;;;;25.42;10.18;;;;;;;8.25;100.00;102249.53;4896015;29;20035;-72
2023/04/16 07:51:07;;;;;;;26.23;12.52;;;;;;;8.30;100.00;102255.25;4895798;29;20029;-71
2023/04/16 07:53:32;;;;;;;28.80;10.93;;;;;;;8.29;100.00;102265.06;4878688;29;20079;-71
2023/04/16 07:55:57;;;;;;;25.98;10.20;;;;;;;8.31;100.00;102260.44;4895270;29;20036;-72
2023/04/16 07:58:23;;;;;;;22.15;10.77;;;;;;;8.30;100.00;102257.91;4895912;29;20096;-72
2023/04/16 08:00:48;;;;;;;26.90;12.13;;;;;;;8.38;100.00;102262.50;4878692;29;20113;-72
2023/04/16 08:03:14;;;;;;;28.55;10.95;;;;;;;8.42;100.00;102263.91;4878407;29;20048;-74
2023/04/16 08:05:40;;;;;;;22.92;9.95;;;;;;;8.44;100.00;102264.63;4878515;29;20136;-71
2023/04/16 08:08:05;;;;;;;23.60;10.25;;;;;;;8.46;100.00;102267.94;4862084;29;20504;-71
2023/04/16 08:10:32;;;;;;;21.67;12.30;;;;;;;8.49;100.00;102273.00;4876916;29;20425;-71
2023/04/16 08:12:59;;;;;;;26.65;12.35;;;;;;;8.52;100.00;102272.69;4878291;29;20192;-71
2023/04/16 08:15:25;;;;;;;25.55;10.68;;;;;;;8.54;100.00;102276.88;4878529;29;20485;-71
2023/04/16 08:17:50;;;;;;;24.98;10.05;;;;;;;8.55;100.00;102283.84;4878155;29;20057;-71
2023/04/16 08:20:16;;;;;;;22.88;11.63;;;;;;;8.52;100.00;102278.00;4878283;29;21091;-71
2023/04/16 08:22:41;;;;;;;27.23;11.13;;;;;;;8.56;100.00;102276.72;4878168;29;20067;-71
2023/04/16 08:25:07;;;;;;;22.85;12.13;;;;;;;8.61;100.00;102287.75;4878324;29;20123;-71
2023/04/16 08:27:32;;;;;;;24.90;9.73;;;;;;;8.62;100.00;102288.56;4878161;29;20037;-71
2023/04/16 08:29:58;;;;;;;26.05;10.10;;;;;;;8.61;100.00;102285.06;4878274;29;20029;-71
2023/04/16 08:32:23;;;;;;;25.10;10.80;;;;;;;8.67;100.00;102289.81;4876776;29;20097;-72
2023/04/16 08:34:48;;;;;;;24.05;10.32;;;;;;;8.70;100.00;102288.69;4876594;29;20041;-71
2023/04/16 08:37:14;;;;;;;29.77;10.48;;;;;;;8.76;100.00;102293.41;4878034;29;20052;-71
2023/04/16 08:39:40;;;;;;;23.63;11.57;;;;;;;8.81;100.00;102295.63;4877805;29;20036;-71
2023/04/16 08:42:13;;;;;;;26.88;12.10;;;;;;;8.82;100.00;102300.78;4877990;29;20397;-71
2023/04/16 08:44:46;;;;;;;26.38;10.68;;;;;;;8.88;100.00;102292.22;4895799;29;20040;-71
2023/04/16 08:47:13;;;;;;;28.20;11.65;;;;;;;8.95;100.00;102297.75;4895723;29;20518;-71
2023/04/16 08:49:43;;;;;;;26.65;11.70;;;;;;;8.99;100.00;102307.97;4877368;29;20131;-71
2023/04/16 08:52:14;;;;;;;25.92;11.80;;;;;;;8.96;100.00;102302.09;4880326;29;20459;-72
2023/04/16 08:54:50;;;;;;;28.35;10.85;;;;;;;8.99;100.00;102305.31;4880281;29;20385;-72
2023/04/16 08:57:18;;;;;;;26.15;11.95;;;;;;;8.96;100.00;102307.41;4880518;29;20032;-72
2023/04/16 08:59:47;;;;;;;23.85;11.65;;;;;;;8.99;100.00;102310.63;4863563;29;20039;-71
2023/04/16 09:02:13;;;;;;;23.80;11.98;;;;;;;9.03;100.00;102310.31;4880755;29;21034;-71
2023/04/16 09:04:40;;;;;;;29.35;12.40;;;;;;;9.03;100.00;102319.13;4879148;29;20388;-72
2023/04/16 09:07:07;;;;;;;24.70;10.93;;;;;;;9.04;100.00;102319.97;4880488;29;20476;-71
2023/04/16 09:09:32;;;;;;;25.05;9.93;;;;;;;9.06;100.00;102318.81;4880111;29;20033;-71
2023/04/16 09:11:58;;;;;;;26.08;11.65;;;;;;;9.07;100.00;102309.03;4879590;29;20606;-71
2023/04/16 09:14:24;;;;;;;24.73;11.20;;;;;;;9.14;100.00;102315.41;4870818;29;20111;-71
2023/04/16 09:16:52;;;;;;;25.08;11.32;;;;;;;9.12;100.00;102320.91;4884764;29;20387;-73
2023/04/16 09:19:18;;;;;;;27.95;12.90;;;;;;;9.18;100.00;102316.81;4870809;29;20049;-72
2023/04/16 09:21:46;;;;;;;27.98;11.68;;;;;;;9.20;100.00;102320.16;4879608;29;20027;-72
2023/04/16 09:24:11;;;;;;;27.13;12.65;;;;;;;9.19;100.00;102323.78;4879607;29;20032;-71
2023/04/16 09:26:37;;;;;;;26.05;11.48;;;;;;;9.20;100.00;102328.97;4880329;29;20047;-71
2023/04/16 09:29:03;;;;;;;28.80;12.77;;;;;;;9.14;100.00;102316.28;4880377;29;20033;-74
2023/04/16 09:31:28;;;;;;;27.38;12.50;;;;;;;9.25;100.00;102332.97;4878767;29;20029;-77
2023/04/16 09:34:05;;;;;;;27.88;11.30;;;;;;;9.28;100.00;102341.53;4880618;29;20036;-75
2023/04/16 09:36:34;;;;;;;27.05;12.18;;;;;;;9.25;100.00;102339.16;4880155;29;20556;-77
2023/04/16 09:38:59;;;;;;;27.80;13.25;;;;;;;9.21;100.00;102327.13;4880118;29;20036;-76
2023/04/16 09:41:27;;;;;;;27.15;12.48;;;;;;;9.33;100.00;102344.56;4880149;29;20035;-73
2023/04/16 09:43:58;;;;;;;30.77;14.02;;;;;;;9.41;100.00;102349.16;4881287;29;20029;-78
2023/04/16 09:46:32;;;;;;;27.15;12.13;;;;;;;9.44;100.00;102341.69;4865061;29;20059;-78
2023/04/16 09:49:07;;;;;;;28.17;12.80;;;;;;;9.46;100.00;102341.53;4882747;29;20507;-73
2023/04/16 09:51:43;;;;;;;30.73;14.43;;;;;;;9.65;100.00;102353.84;4879569;29;20033;-80
2023/04/16 09:54:08;;;;;;;30.85;13.93;;;;;;;9.79;100.00;102349.78;4864618;29;20068;-76
2023/04/16 09:56:40;;;;;;;25.38;13.63;;;;;;;9.88;100.00;102344.38;4881163;29;20028;-83
2023/04/16 09:59:05;;;;;;;27.77;13.50;;;;;;;9.93;100.00;102343.06;4880169;29;20484;-78
2023/04/16 10:01:31;;;;;;;26.65;12.88;;;;;;;9.95;100.00;102341.09;4879858;29;20061;-77
2023/04/16 10:03:57;;;;;;;43.58;15.05;;;;;;;9.97;100.00;102347.94;4870798;29;20021;-77
2023/04/16 10:06:26;;;;;;;27.65;12.73;;;;;;;9.97;100.00;102355.09;4878457;29;20501;-75
2023/04/16 10:08:55;;;;;;;27.45;12.60;;;;;;;9.99;100.00;102364.63;4887764;29;20037;-84
2023/04/16 10:11:21;;;;;;;25.95;12.57;;;;;;;10.02;100.00;102358.13;4888225;29;20041;-83
2023/04/16 10:13:47;;;;;;;26.33;12.13;;;;;;;9.96;100.00;102356.09;4888361;29;20032;-83
2023/04/16 10:16:13;;;;;;;29.10;15.55;;;;;;;9.94;100.00;102363.41;4888301;29;20036;-83
2023/04/16 10:18:40;;;;;;;28.15;12.75;;;;;;;9.90;100.00;102359.38;4888093;29;20060;-83
2023/04/16 10:21:06;;;;;;;29.48;13.57;;;;;;;9.98;100.00;102362.94;4871939;29;20111;-83
2023/04/16 10:23:33;;;;;;;26.42;12.30;;;;;;;9.99;100.00;102364.63;4889072;29;20030;-83
2023/04/16 10:26:00;;;;;;;33.05;13.40;;;;;;;10.04;100.00;102356.16;4885386;29;20036;-80
2023/04/16 10:28:27;;;;;;;29.77;13.45;;;;;;;10.05;100.00;102363.97;4885761;29;20496;-80
2023/04/16 10:30:55;;;;;;;29.90;14.73;;;;;;;10.06;100.00;102354.16;4884578;29;20039;-79
2023/04/16 10:33:27;;;;;;;25.70;13.15;;;;;;;10.08;100.00;102363.66;4885625;29;20028;-79
2023/04/16 10:36:10;;;;;;;28.00;13.13;;;;;;;10.17;100.00;102369.91;4885569;29;20548;-82
2023/04/16 10:38:40;;;;;;;24.00;11.77;;;;;;;10.19;100.00;102365.25;4886882;29;20039;-78
2023/04/16 10:41:07;;;;;;;27.42;14.77;;;;;;;10.24;100.00;102357.63;4886109;29;20038;-77
2023/04/16 10:43:42;;;;;;;29.15;12.35;;;;;;;10.41;100.00;102371.09;4878971;29;20017;-76
2023/04/16 10:46:33;;;;;;;28.35;13.43;;;;;;;10.55;100.00;102365.16;4881146;29;20041;-78
2023/04/16 10:49:18;;;;;;;26.02;12.98;;;;;;;10.71;100.00;102365.22;4880442;29;20079;-75
2023/04/16 10:51:57;;;;;;;27.73;13.23;;;;;;;10.86;100.00;102365.44;4868732;29;20512;-76
2023/04/16 10:54:30;;;;;;;28.67;14.50;;;;;;;10.93;100.00;102368.31;4880043;29;20036;-74
2023/04/16 10:57:02;;;;;;;24.50;13.00;;;;;;;10.95;100.00;102372.50;4879325;29;20028;-77
2023/04/16 10:59:33;;;;;;;24.10;12.57;;;;;;;10.92;100.00;102375.47;4881757;29;20056;-80
2023/04/16 11:02:01;;;;;;;24.95;11.88;;;;;;;10.77;100.00;102357.56;4880227;29;20453;-80
2023/04/16 11:04:34;;;;;;;24.67;12.55;;;;;;;10.79;100.00;102375.09;4883297;29;20037;-80
2023/04/16 11:07:06;;;;;;;27.25;13.05;;;;;;;10.80;100.00;102368.78;4881252;29;20385;-78
2023/04/16 11:09:45;;;;;;;23.92;12.88;;;;;;;10.80;100.00;102365.28;4881706;29;20040;-85